sensor_id;sensor_type;location;lat;lon;timestamp;pressure;altitude;pressure_sealevel;temperature;humidity
72262;BME280;60173;52.112;8.648;2023-03-23T00:01:55;99466.00;;;10.98;86.72
72262;BME280;60173;52.112;8.648;2023-03-23T00:04:20;99459.31;;;10.86;87.68
72262;BME280;60173;52.112;8.648;2023-03-23T00:06:45;99456.47;;;10.74;88.78
72262;BME280;60173;52.112;8.648;2023-03-23T00:09:12;99461.09;;;10.82;88.79
72262;BME280;60173;52.112;8.648;2023-03-23T00:11:38;99447.56;;;10.65;89.92
72262;BME280;60173;52.112;8.648;2023-03-23T00:14:03;99449.28;;;10.70;90.54
72262;BME280;60173;52.112;8.648;2023-03-23T00:16:31;99451.88;;;10.57;91.34
72262;BME280;60173;52.112;8.648;2023-03-23T00:19:04;99450.09;;;10.53;92.16
72262;BME280;60173;52.112;8.648;2023-03-23T00:21:32;99448.38;;;10.57;92.73
72262;BME280;60173;52.112;8.648;2023-03-23T00:23:59;99444.06;;;10.56;92.70
72262;BME280;60173;52.112;8.648;2023-03-23T00:26:25;99429.34;;;10.57;92.89
72262;BME280;60173;52.112;8.648;2023-03-23T00:28:50;99430.66;;;10.51;93.03
72262;BME280;60173;52.112;8.648;2023-03-23T00:31:15;99435.13;;;10.47;93.43
72262;BME280;60173;52.112;8.648;2023-03-23T00:33:40;99433.22;;;10.38;93.68
72262;BME280;60173;52.112;8.648;2023-03-23T00:36:07;99424.13;;;10.34;93.61
72262;BME280;60173;52.112;8.648;2023-03-23T00:38:34;99424.25;;;10.47;93.45
72262;BME280;60173;52.112;8.648;2023-03-23T00:41:00;99428.59;;;10.48;92.63
72262;BME280;60173;52.112;8.648;2023-03-23T00:43:25;99425.22;;;10.51;92.33
72262;BME280;60173;52.112;8.648;2023-03-23T00:45:51;99418.03;;;10.55;92.17
72262;BME280;60173;52.112;8.648;2023-03-23T00:48:16;99419.16;;;10.54;92.27
72262;BME280;60173;52.112;8.648;2023-03-23T00:50:41;99422.38;;;10.47;92.74
72262;BME280;60173;52.112;8.648;2023-03-23T00:53:06;99416.91;;;10.56;92.30
72262;BME280;60173;52.112;8.648;2023-03-23T00:55:32;99419.47;;;10.44;92.98
72262;BME280;60173;52.112;8.648;2023-03-23T00:57:57;99411.66;;;10.51;92.97
72262;BME280;60173;52.112;8.648;2023-03-23T01:00:23;99412.47;;;10.43;93.01
72262;BME280;60173;52.112;8.648;2023-03-23T01:02:48;99403.97;;;10.44;93.61
72262;BME280;60173;52.112;8.648;2023-03-23T01:05:14;99404.81;;;10.45;93.52
72262;BME280;60173;52.112;8.648;2023-03-23T01:07:39;99407.69;;;10.39;93.95
72262;BME280;60173;52.112;8.648;2023-03-23T01:10:05;99404.47;;;10.37;94.00
72262;BME280;60173;52.112;8.648;2023-03-23T01:12:30;99398.91;;;10.34;94.28
72262;BME280;60173;52.112;8.648;2023-03-23T01:14:55;99405.13;;;10.34;94.57
72262;BME280;60173;52.112;8.648;2023-03-23T01:17:21;99389.63;;;10.44;94.24
72262;BME280;60173;52.112;8.648;2023-03-23T01:19:46;99388.53;;;10.36;93.68
72262;BME280;60173;52.112;8.648;2023-03-23T01:22:11;99385.63;;;10.41;93.88
72262;BME280;60173;52.112;8.648;2023-03-23T01:24:37;99385.16;;;10.48;93.05
72262;BME280;60173;52.112;8.648;2023-03-23T01:27:02;99381.66;;;10.47;92.82
72262;BME280;60173;52.112;8.648;2023-03-23T01:29:28;99386.41;;;10.59;91.74
72262;BME280;60173;52.112;8.648;2023-03-23T01:31:53;99379.84;;;10.60;91.83
72262;BME280;60173;52.112;8.648;2023-03-23T01:34:18;99382.44;;;10.48;92.20
72262;BME280;60173;52.112;8.648;2023-03-23T01:36:43;99380.69;;;10.43;92.27
72262;BME280;60173;52.112;8.648;2023-03-23T01:39:09;99383.09;;;10.45;92.36
72262;BME280;60173;52.112;8.648;2023-03-23T01:41:35;99376.50;;;10.54;91.65
72262;BME280;60173;52.112;8.648;2023-03-23T01:44:04;99377.00;;;10.48;92.15
72262;BME280;60173;52.112;8.648;2023-03-23T01:46:32;99374.09;;;10.53;92.22
72262;BME280;60173;52.112;8.648;2023-03-23T01:49:01;99373.81;;;10.46;92.53
72262;BME280;60173;52.112;8.648;2023-03-23T01:51:27;99376.69;;;10.40;92.65
72262;BME280;60173;52.112;8.648;2023-03-23T01:53:58;99378.31;;;10.42;92.42
72262;BME280;60173;52.112;8.648;2023-03-23T01:56:29;99376.34;;;10.51;91.76
72262;BME280;60173;52.112;8.648;2023-03-23T01:58:57;99361.78;;;10.55;91.45
72262;BME280;60173;52.112;8.648;2023-03-23T02:01:22;99364.19;;;10.57;91.34
72262;BME280;60173;52.112;8.648;2023-03-23T02:03:48;99361.97;;;10.59;91.08
72262;BME280;60173;52.112;8.648;2023-03-23T02:06:14;99366.53;;;10.67;91.00
72262;BME280;60173;52.112;8.648;2023-03-23T02:08:41;99371.69;;;10.60;90.79
72262;BME280;60173;52.112;8.648;2023-03-23T02:11:16;99359.69;;;10.61;90.56
72262;BME280;60173;52.112;8.648;2023-03-23T02:13:43;99359.41;;;10.54;90.60
72262;BME280;60173;52.112;8.648;2023-03-23T02:16:28;99365.34;;;10.56;90.54
72262;BME280;60173;52.112;8.648;2023-03-23T02:25:39;99346.59;;;10.63;88.92
72262;BME280;60173;52.112;8.648;2023-03-23T02:36:40;99367.16;;;10.73;87.91
72262;BME280;60173;52.112;8.648;2023-03-23T02:39:21;99371.59;;;10.86;87.70
72262;BME280;60173;52.112;8.648;2023-03-23T02:41:52;99346.22;;;10.82;88.32
72262;BME280;60173;52.112;8.648;2023-03-23T02:44:19;99343.03;;;10.80;89.07
72262;BME280;60173;52.112;8.648;2023-03-23T02:46:47;99308.88;;;10.70;89.56
72262;BME280;60173;52.112;8.648;2023-03-23T02:49:15;99315.94;;;10.62;90.12
72262;BME280;60173;52.112;8.648;2023-03-23T02:51:44;99311.81;;;10.56;89.89
72262;BME280;60173;52.112;8.648;2023-03-23T02:54:11;99301.28;;;10.55;89.62
72262;BME280;60173;52.112;8.648;2023-03-23T02:56:38;99290.41;;;10.55;89.78
72262;BME280;60173;52.112;8.648;2023-03-23T02:59:04;99289.44;;;10.59;89.31
72262;BME280;60173;52.112;8.648;2023-03-23T03:03:57;99301.59;;;10.62;88.47
72262;BME280;60173;52.112;8.648;2023-03-23T03:06:34;99319.28;;;10.68;87.74
72262;BME280;60173;52.112;8.648;2023-03-23T03:09:11;99319.94;;;10.65;87.93
72262;BME280;60173;52.112;8.648;2023-03-23T03:11:42;99295.94;;;10.67;87.19
72262;BME280;60173;52.112;8.648;2023-03-23T03:14:27;99298.22;;;10.65;86.83
72262;BME280;60173;52.112;8.648;2023-03-23T03:17:00;99307.94;;;10.66;86.95
72262;BME280;60173;52.112;8.648;2023-03-23T03:19:29;99303.50;;;10.53;87.18
72262;BME280;60173;52.112;8.648;2023-03-23T03:21:57;99296.16;;;10.62;86.25
72262;BME280;60173;52.112;8.648;2023-03-23T03:24:25;99307.59;;;10.76;85.22
72262;BME280;60173;52.112;8.648;2023-03-23T03:26:54;99299.31;;;10.64;85.81
72262;BME280;60173;52.112;8.648;2023-03-23T03:29:39;99302.03;;;10.64;85.15
72262;BME280;60173;52.112;8.648;2023-03-23T03:32:06;99300.44;;;10.63;85.37
72262;BME280;60173;52.112;8.648;2023-03-23T03:34:33;99288.75;;;10.71;85.11
72262;BME280;60173;52.112;8.648;2023-03-23T03:36:59;99287.81;;;10.67;84.89
72262;BME280;60173;52.112;8.648;2023-03-23T03:39:25;99286.69;;;10.68;85.09
72262;BME280;60173;52.112;8.648;2023-03-23T03:41:51;99282.56;;;10.62;85.18
72262;BME280;60173;52.112;8.648;2023-03-23T03:44:17;99277.81;;;10.59;85.59
72262;BME280;60173;52.112;8.648;2023-03-23T03:46:42;99265.06;;;10.51;85.72
72262;BME280;60173;52.112;8.648;2023-03-23T03:49:09;99264.88;;;10.56;85.60
72262;BME280;60173;52.112;8.648;2023-03-23T03:51:35;99246.47;;;10.61;85.68
72262;BME280;60173;52.112;8.648;2023-03-23T03:54:00;99244.59;;;10.53;85.78
72262;BME280;60173;52.112;8.648;2023-03-23T03:56:26;99256.47;;;10.40;86.11
72262;BME280;60173;52.112;8.648;2023-03-23T03:58:52;99265.53;;;10.44;86.49
72262;BME280;60173;52.112;8.648;2023-03-23T04:01:19;99266.53;;;10.39;86.55
72262;BME280;60173;52.112;8.648;2023-03-23T04:03:44;99281.69;;;10.40;87.03
72262;BME280;60173;52.112;8.648;2023-03-23T04:06:11;99262.41;;;10.33;87.31
72262;BME280;60173;52.112;8.648;2023-03-23T04:08:36;99272.47;;;10.33;87.56
72262;BME280;60173;52.112;8.648;2023-03-23T04:11:01;99255.38;;;10.32;87.28
72262;BME280;60173;52.112;8.648;2023-03-23T04:13:27;99252.34;;;10.34;87.22
72262;BME280;60173;52.112;8.648;2023-03-23T04:15:52;99256.94;;;10.42;86.80
72262;BME280;60173;52.112;8.648;2023-03-23T04:18:18;99259.16;;;10.49;86.46
72262;BME280;60173;52.112;8.648;2023-03-23T04:20:45;99263.97;;;10.43;86.85
72262;BME280;60173;52.112;8.648;2023-03-23T04:23:10;99269.56;;;10.38;86.78
72262;BME280;60173;52.112;8.648;2023-03-23T04:25:36;99257.75;;;10.43;86.92
72262;BME280;60173;52.112;8.648;2023-03-23T04:28:02;99268.44;;;10.48;86.44
72262;BME280;60173;52.112;8.648;2023-03-23T04:30:28;99272.13;;;10.34;87.17
72262;BME280;60173;52.112;8.648;2023-03-23T04:32:53;99272.25;;;10.47;86.84
72262;BME280;60173;52.112;8.648;2023-03-23T04:35:20;99262.59;;;10.28;86.67
72262;BME280;60173;52.112;8.648;2023-03-23T04:37:46;99278.50;;;10.47;86.07
72262;BME280;60173;52.112;8.648;2023-03-23T04:40:12;99271.75;;;10.53;85.98
72262;BME280;60173;52.112;8.648;2023-03-23T04:42:38;99289.19;;;10.44;86.43
72262;BME280;60173;52.112;8.648;2023-03-23T04:45:06;99285.53;;;10.39;86.50
72262;BME280;60173;52.112;8.648;2023-03-23T04:47:34;99290.09;;;10.56;85.85
72262;BME280;60173;52.112;8.648;2023-03-23T04:50:00;99293.97;;;10.47;86.23
72262;BME280;60173;52.112;8.648;2023-03-23T04:52:25;99294.44;;;10.49;85.91
72262;BME280;60173;52.112;8.648;2023-03-23T04:54:51;99280.22;;;10.52;85.83
72262;BME280;60173;52.112;8.648;2023-03-23T04:57:17;99278.25;;;10.61;85.53
72262;BME280;60173;52.112;8.648;2023-03-23T04:59:42;99296.31;;;10.57;85.57
72262;BME280;60173;52.112;8.648;2023-03-23T05:02:08;99292.03;;;10.56;85.54
72262;BME280;60173;52.112;8.648;2023-03-23T05:04:33;99284.16;;;10.63;85.41
72262;BME280;60173;52.112;8.648;2023-03-23T05:06:58;99281.25;;;10.68;85.21
72262;BME280;60173;52.112;8.648;2023-03-23T05:09:24;99283.31;;;10.71;85.24
72262;BME280;60173;52.112;8.648;2023-03-23T05:11:49;99286.22;;;10.66;85.25
72262;BME280;60173;52.112;8.648;2023-03-23T05:14:14;99285.25;;;10.71;84.56
72262;BME280;60173;52.112;8.648;2023-03-23T05:16:39;99275.00;;;10.76;84.40
72262;BME280;60173;52.112;8.648;2023-03-23T05:19:05;99278.47;;;10.85;83.74
72262;BME280;60173;52.112;8.648;2023-03-23T05:21:31;99283.88;;;10.85;84.13
72262;BME280;60173;52.112;8.648;2023-03-23T05:23:56;99279.78;;;10.79;84.41
72262;BME280;60173;52.112;8.648;2023-03-23T05:26:22;99280.25;;;10.73;84.50
72262;BME280;60173;52.112;8.648;2023-03-23T05:28:47;99276.28;;;10.70;84.29
72262;BME280;60173;52.112;8.648;2023-03-23T05:31:13;99271.34;;;10.72;83.68
72262;BME280;60173;52.112;8.648;2023-03-23T05:33:38;99272.53;;;10.83;83.51
72262;BME280;60173;52.112;8.648;2023-03-23T05:36:04;99262.16;;;10.85;83.11
72262;BME280;60173;52.112;8.648;2023-03-23T05:38:29;99263.59;;;10.83;82.99
72262;BME280;60173;52.112;8.648;2023-03-23T05:40:58;99264.78;;;10.73;82.91
72262;BME280;60173;52.112;8.648;2023-03-23T05:43:23;99263.66;;;10.74;82.74
72262;BME280;60173;52.112;8.648;2023-03-23T05:45:49;99263.06;;;10.69;83.23
72262;BME280;60173;52.112;8.648;2023-03-23T05:48:14;99252.97;;;10.69;83.58
72262;BME280;60173;52.112;8.648;2023-03-23T05:50:39;99261.25;;;10.73;83.53
72262;BME280;60173;52.112;8.648;2023-03-23T05:53:05;99251.41;;;10.68;83.64
72262;BME280;60173;52.112;8.648;2023-03-23T05:55:30;99251.47;;;10.80;83.17
72262;BME280;60173;52.112;8.648;2023-03-23T05:57:55;99264.41;;;10.83;82.86
72262;BME280;60173;52.112;8.648;2023-03-23T06:00:21;99284.81;;;10.90;82.50
72262;BME280;60173;52.112;8.648;2023-03-23T06:02:47;99273.09;;;10.98;82.17
72262;BME280;60173;52.112;8.648;2023-03-23T06:05:12;99274.91;;;10.94;82.30
72262;BME280;60173;52.112;8.648;2023-03-23T06:07:38;99280.59;;;11.01;82.29
72262;BME280;60173;52.112;8.648;2023-03-23T06:10:06;99286.94;;;11.05;82.25
72262;BME280;60173;52.112;8.648;2023-03-23T06:12:32;99281.31;;;11.10;82.54
72262;BME280;60173;52.112;8.648;2023-03-23T06:14:57;99298.09;;;11.12;82.05
72262;BME280;60173;52.112;8.648;2023-03-23T06:17:23;99306.72;;;11.14;81.58
72262;BME280;60173;52.112;8.648;2023-03-23T06:19:48;99292.25;;;11.22;81.59
72262;BME280;60173;52.112;8.648;2023-03-23T06:22:13;99294.41;;;11.38;80.70
72262;BME280;60173;52.112;8.648;2023-03-23T06:24:38;99286.69;;;11.40;80.86
72262;BME280;60173;52.112;8.648;2023-03-23T06:27:04;99300.22;;;11.27;81.34
72262;BME280;60173;52.112;8.648;2023-03-23T06:29:29;99308.38;;;11.27;81.47
72262;BME280;60173;52.112;8.648;2023-03-23T06:31:58;99299.31;;;11.23;81.32
72262;BME280;60173;52.112;8.648;2023-03-23T06:34:25;99296.91;;;11.22;81.80
72262;BME280;60173;52.112;8.648;2023-03-23T06:36:51;99307.78;;;11.22;81.80
72262;BME280;60173;52.112;8.648;2023-03-23T06:39:16;99321.31;;;11.30;81.40
72262;BME280;60173;52.112;8.648;2023-03-23T06:41:41;99304.34;;;11.34;81.56
72262;BME280;60173;52.112;8.648;2023-03-23T06:44:06;99297.50;;;11.48;80.59
72262;BME280;60173;52.112;8.648;2023-03-23T06:46:32;99314.66;;;11.49;80.91
72262;BME280;60173;52.112;8.648;2023-03-23T06:48:57;99311.56;;;11.71;80.80
72262;BME280;60173;52.112;8.648;2023-03-23T06:51:23;99314.03;;;11.85;79.82
72262;BME280;60173;52.112;8.648;2023-03-23T06:53:49;99311.78;;;11.87;79.15
72262;BME280;60173;52.112;8.648;2023-03-23T06:56:14;99307.59;;;11.90;78.81
72262;BME280;60173;52.112;8.648;2023-03-23T06:58:40;99317.28;;;11.79;79.26
72262;BME280;60173;52.112;8.648;2023-03-23T07:01:05;99316.47;;;11.99;78.75
72262;BME280;60173;52.112;8.648;2023-03-23T07:03:31;99314.44;;;11.96;78.91
72262;BME280;60173;52.112;8.648;2023-03-23T07:05:56;99312.41;;;12.05;78.69
72262;BME280;60173;52.112;8.648;2023-03-23T07:08:22;99319.19;;;11.99;78.68
72262;BME280;60173;52.112;8.648;2023-03-23T07:10:50;99321.44;;;11.97;78.82
72262;BME280;60173;52.112;8.648;2023-03-23T07:13:16;99325.19;;;11.92;78.36
72262;BME280;60173;52.112;8.648;2023-03-23T07:15:41;99316.78;;;11.97;78.75
72262;BME280;60173;52.112;8.648;2023-03-23T07:18:06;99323.19;;;12.02;77.96
72262;BME280;60173;52.112;8.648;2023-03-23T07:20:32;99312.53;;;12.09;77.54
72262;BME280;60173;52.112;8.648;2023-03-23T07:22:57;99316.53;;;12.24;77.61
72262;BME280;60173;52.112;8.648;2023-03-23T07:25:22;99316.78;;;12.31;77.57
72262;BME280;60173;52.112;8.648;2023-03-23T07:27:48;99309.44;;;12.43;76.88
72262;BME280;60173;52.112;8.648;2023-03-23T07:30:13;99310.00;;;12.49;76.22
72262;BME280;60173;52.112;8.648;2023-03-23T07:32:39;99306.84;;;12.59;76.38
72262;BME280;60173;52.112;8.648;2023-03-23T07:35:04;99311.72;;;12.66;75.66
72262;BME280;60173;52.112;8.648;2023-03-23T07:37:30;99322.19;;;12.76;75.34
72262;BME280;60173;52.112;8.648;2023-03-23T07:39:55;99314.13;;;12.80;74.94
72262;BME280;60173;52.112;8.648;2023-03-23T07:42:20;99323.56;;;12.70;74.88
72262;BME280;60173;52.112;8.648;2023-03-23T07:44:46;99323.44;;;12.79;74.79
72262;BME280;60173;52.112;8.648;2023-03-23T07:47:11;99326.59;;;12.69;75.15
72262;BME280;60173;52.112;8.648;2023-03-23T07:49:36;99324.56;;;12.65;75.25
72262;BME280;60173;52.112;8.648;2023-03-23T07:52:02;99325.44;;;12.57;75.71
72262;BME280;60173;52.112;8.648;2023-03-23T07:54:27;99330.69;;;12.62;75.37
72262;BME280;60173;52.112;8.648;2023-03-23T07:56:52;99329.66;;;12.55;75.36
72262;BME280;60173;52.112;8.648;2023-03-23T07:59:17;99332.41;;;12.67;74.77
72262;BME280;60173;52.112;8.648;2023-03-23T08:01:43;99333.63;;;12.57;75.19
72262;BME280;60173;52.112;8.648;2023-03-23T08:04:08;99327.81;;;12.47;75.90
72262;BME280;60173;52.112;8.648;2023-03-23T08:06:34;99333.16;;;12.55;75.65
72262;BME280;60173;52.112;8.648;2023-03-23T08:09:00;99343.16;;;12.63;75.50
72262;BME280;60173;52.112;8.648;2023-03-23T08:11:26;99329.53;;;12.51;75.63
72262;BME280;60173;52.112;8.648;2023-03-23T08:13:52;99348.69;;;12.42;75.86
72262;BME280;60173;52.112;8.648;2023-03-23T08:16:17;99341.31;;;12.55;75.60
72262;BME280;60173;52.112;8.648;2023-03-23T08:18:42;99335.75;;;12.52;75.52
72262;BME280;60173;52.112;8.648;2023-03-23T08:21:08;99343.41;;;12.58;76.61
72262;BME280;60173;52.112;8.648;2023-03-23T08:23:33;99344.31;;;12.75;76.01
72262;BME280;60173;52.112;8.648;2023-03-23T08:25:59;99334.09;;;12.72;75.95
72262;BME280;60173;52.112;8.648;2023-03-23T08:28:24;99331.16;;;12.77;75.68
72262;BME280;60173;52.112;8.648;2023-03-23T08:30:50;99332.50;;;12.71;75.88
72262;BME280;60173;52.112;8.648;2023-03-23T08:33:15;99328.53;;;12.80;75.00
72262;BME280;60173;52.112;8.648;2023-03-23T08:35:40;99340.69;;;12.83;74.85
72262;BME280;60173;52.112;8.648;2023-03-23T08:38:06;99343.19;;;12.88;74.95
72262;BME280;60173;52.112;8.648;2023-03-23T08:40:31;99347.28;;;12.82;75.15
72262;BME280;60173;52.112;8.648;2023-03-23T08:42:57;99344.56;;;12.82;75.04
72262;BME280;60173;52.112;8.648;2023-03-23T08:45:24;99343.88;;;12.85;75.56
72262;BME280;60173;52.112;8.648;2023-03-23T08:47:50;99353.31;;;12.87;74.22
72262;BME280;60173;52.112;8.648;2023-03-23T08:50:16;99349.31;;;12.97;74.63
72262;BME280;60173;52.112;8.648;2023-03-23T08:52:41;99352.16;;;13.01;74.13
72262;BME280;60173;52.112;8.648;2023-03-23T08:55:07;99346.34;;;12.78;74.00
72262;BME280;60173;52.112;8.648;2023-03-23T08:57:32;99354.53;;;12.90;73.07
72262;BME280;60173;52.112;8.648;2023-03-23T08:59:58;99347.72;;;13.08;72.89
72262;BME280;60173;52.112;8.648;2023-03-23T09:02:23;99357.81;;;12.96;72.36
72262;BME280;60173;52.112;8.648;2023-03-23T09:04:48;99356.81;;;13.00;72.92
72262;BME280;60173;52.112;8.648;2023-03-23T09:07:13;99359.88;;;13.11;71.91
72262;BME280;60173;52.112;8.648;2023-03-23T09:09:39;99361.25;;;13.17;71.48
72262;BME280;60173;52.112;8.648;2023-03-23T09:12:05;99358.88;;;13.28;71.61
72262;BME280;60173;52.112;8.648;2023-03-23T09:14:31;99369.75;;;13.16;70.57
72262;BME280;60173;52.112;8.648;2023-03-23T09:16:56;99364.06;;;13.21;70.79
72262;BME280;60173;52.112;8.648;2023-03-23T09:19:21;99373.63;;;13.39;70.25
72262;BME280;60173;52.112;8.648;2023-03-23T09:21:46;99380.00;;;13.43;69.97
72262;BME280;60173;52.112;8.648;2023-03-23T09:24:12;99371.56;;;13.24;69.79
72262;BME280;60173;52.112;8.648;2023-03-23T09:26:38;99382.75;;;13.31;70.06
72262;BME280;60173;52.112;8.648;2023-03-23T09:29:03;99380.31;;;13.42;69.53
72262;BME280;60173;52.112;8.648;2023-03-23T09:31:29;99381.53;;;13.56;69.33
72262;BME280;60173;52.112;8.648;2023-03-23T09:33:54;99385.09;;;13.57;69.58
72262;BME280;60173;52.112;8.648;2023-03-23T09:36:19;99388.03;;;13.52;69.24
72262;BME280;60173;52.112;8.648;2023-03-23T09:38:45;99398.63;;;13.41;69.41
72262;BME280;60173;52.112;8.648;2023-03-23T09:49:44;99408.25;;;13.51;68.79
72262;BME280;60173;52.112;8.648;2023-03-23T09:51:55;99395.41;;;13.64;68.53
72262;BME280;60173;52.112;8.648;2023-03-23T09:54:33;99402.31;;;13.73;68.18
72262;BME280;60173;52.112;8.648;2023-03-23T09:57:00;99410.22;;;13.63;67.94
72262;BME280;60173;52.112;8.648;2023-03-23T09:59:41;99406.31;;;13.64;67.37
72262;BME280;60173;52.112;8.648;2023-03-23T10:02:15;99403.38;;;13.44;67.49
72262;BME280;60173;52.112;8.648;2023-03-23T10:04:48;99398.16;;;13.51;67.67
72262;BME280;60173;52.112;8.648;2023-03-23T10:07:17;99411.13;;;13.42;67.92
72262;BME280;60173;52.112;8.648;2023-03-23T10:09:45;99415.00;;;13.41;67.18
72262;BME280;60173;52.112;8.648;2023-03-23T10:14:48;99419.69;;;14.21;66.23
72262;BME280;60173;52.112;8.648;2023-03-23T10:17:28;99417.44;;;14.39;64.77
72262;BME280;60173;52.112;8.648;2023-03-23T10:20:05;99422.13;;;14.67;63.78
72262;BME280;60173;52.112;8.648;2023-03-23T10:22:40;99416.00;;;14.58;63.92
72262;BME280;60173;52.112;8.648;2023-03-23T10:30:28;99414.47;;;15.20;64.32
72262;BME280;60173;52.112;8.648;2023-03-23T10:33:40;99394.41;;;15.48;63.41
72262;BME280;60173;52.112;8.648;2023-03-23T10:35:59;99393.19;;;15.80;61.46
72262;BME280;60173;52.112;8.648;2023-03-23T10:38:49;99387.72;;;15.80;60.14
72262;BME280;60173;52.112;8.648;2023-03-23T10:41:19;99380.00;;;15.51;61.09
72262;BME280;60173;52.112;8.648;2023-03-23T10:43:46;99379.59;;;15.33;60.65
72262;BME280;60173;52.112;8.648;2023-03-23T10:48:59;99387.28;;;15.98;59.58
72262;BME280;60173;52.112;8.648;2023-03-23T10:51:39;99383.81;;;15.81;58.92
72262;BME280;60173;52.112;8.648;2023-03-23T10:54:06;99383.47;;;15.67;59.46
72262;BME280;60173;52.112;8.648;2023-03-23T10:56:41;99406.97;;;14.85;60.78
72262;BME280;60173;52.112;8.648;2023-03-23T10:59:17;99452.88;;;14.36;66.92
72262;BME280;60173;52.112;8.648;2023-03-23T11:01:45;99475.19;;;13.24;71.44
72262;BME280;60173;52.112;8.648;2023-03-23T11:04:13;99461.53;;;12.66;75.15
72262;BME280;60173;52.112;8.648;2023-03-23T11:06:45;99484.00;;;12.30;75.98
72262;BME280;60173;52.112;8.648;2023-03-23T11:09:16;99481.13;;;12.05;77.96
72262;BME280;60173;52.112;8.648;2023-03-23T11:11:48;99474.84;;;11.92;79.19
72262;BME280;60173;52.112;8.648;2023-03-23T11:16:53;99490.81;;;11.64;81.69
72262;BME280;60173;52.112;8.648;2023-03-23T11:19:28;99504.72;;;11.33;82.72
72262;BME280;60173;52.112;8.648;2023-03-23T11:21:58;99500.41;;;11.32;83.13
72262;BME280;60173;52.112;8.648;2023-03-23T11:24:25;99506.63;;;11.32;83.89
72262;BME280;60173;52.112;8.648;2023-03-23T11:26:51;99508.69;;;11.36;83.58
72262;BME280;60173;52.112;8.648;2023-03-23T11:29:19;99511.94;;;11.29;82.07
72262;BME280;60173;52.112;8.648;2023-03-23T11:31:49;99512.28;;;11.10;82.50
72262;BME280;60173;52.112;8.648;2023-03-23T11:34:17;99499.41;;;10.90;83.55
72262;BME280;60173;52.112;8.648;2023-03-23T11:36:51;99495.28;;;10.75;83.58
72262;BME280;60173;52.112;8.648;2023-03-23T11:41:47;99511.88;;;10.91;83.69
72262;BME280;60173;52.112;8.648;2023-03-23T11:44:12;99525.00;;;10.80;82.61
72262;BME280;60173;52.112;8.648;2023-03-23T11:46:44;99522.28;;;10.89;82.25
72262;BME280;60173;52.112;8.648;2023-03-23T11:49:20;99518.44;;;10.90;82.69
72262;BME280;60173;52.112;8.648;2023-03-23T11:51:54;99520.44;;;11.10;82.02
72262;BME280;60173;52.112;8.648;2023-03-23T11:57:09;99526.44;;;10.86;81.40
72262;BME280;60173;52.112;8.648;2023-03-23T11:59:36;99531.88;;;10.69;80.48
72262;BME280;60173;52.112;8.648;2023-03-23T12:02:25;99551.69;;;10.69;80.39
72262;BME280;60173;52.112;8.648;2023-03-23T12:05:26;99565.09;;;10.74;80.21
72262;BME280;60173;52.112;8.648;2023-03-23T12:07:53;99543.22;;;10.88;79.17
72262;BME280;60173;52.112;8.648;2023-03-23T12:10:25;99532.63;;;10.95;79.26
72262;BME280;60173;52.112;8.648;2023-03-23T12:13:04;99525.59;;;11.03;78.79
72262;BME280;60173;52.112;8.648;2023-03-23T12:16:00;99524.13;;;11.14;78.82
72262;BME280;60173;52.112;8.648;2023-03-23T12:18:39;99518.56;;;11.02;77.61
72262;BME280;60173;52.112;8.648;2023-03-23T12:21:22;99518.28;;;10.86;78.80
72262;BME280;60173;52.112;8.648;2023-03-23T12:24:02;99517.34;;;10.73;79.68
72262;BME280;60173;52.112;8.648;2023-03-23T12:26:33;99510.78;;;10.74;80.36
72262;BME280;60173;52.112;8.648;2023-03-23T12:29:11;99521.66;;;10.83;79.60
72262;BME280;60173;52.112;8.648;2023-03-23T12:32:13;99518.38;;;11.07;78.21
72262;BME280;60173;52.112;8.648;2023-03-23T12:34:50;99526.69;;;11.02;77.51
72262;BME280;60173;52.112;8.648;2023-03-23T12:40:19;99525.19;;;11.30;77.43
72262;BME280;60173;52.112;8.648;2023-03-23T12:42:53;99533.16;;;11.36;76.69
72262;BME280;60173;52.112;8.648;2023-03-23T12:48:33;99529.47;;;11.40;78.51
72262;BME280;60173;52.112;8.648;2023-03-23T12:51:12;99527.94;;;11.22;80.27
72262;BME280;60173;52.112;8.648;2023-03-23T12:53:55;99514.19;;;11.18;80.18
72262;BME280;60173;52.112;8.648;2023-03-23T12:56:41;99530.38;;;11.53;79.52
72262;BME280;60173;52.112;8.648;2023-03-23T13:01:44;99533.28;;;11.48;79.08
72262;BME280;60173;52.112;8.648;2023-03-23T13:04:41;99528.38;;;11.32;80.68
72262;BME280;60173;52.112;8.648;2023-03-23T13:07:13;99526.81;;;11.61;79.92
72262;BME280;60173;52.112;8.648;2023-03-23T13:09:58;99524.47;;;11.89;79.20
72262;BME280;60173;52.112;8.648;2023-03-23T13:12:27;99531.19;;;11.92;79.01
72262;BME280;60173;52.112;8.648;2023-03-23T13:18:04;99518.69;;;12.12;77.96
72262;BME280;60173;52.112;8.648;2023-03-23T13:23:22;99528.22;;;12.48;77.32
72262;BME280;60173;52.112;8.648;2023-03-23T13:26:10;99519.09;;;12.64;77.00
72262;BME280;60173;52.112;8.648;2023-03-23T13:28:57;99520.94;;;12.73;76.64
72262;BME280;60173;52.112;8.648;2023-03-23T13:33:58;99507.88;;;12.99;76.78
72262;BME280;60173;52.112;8.648;2023-03-23T13:36:41;99506.75;;;13.12;76.60
72262;BME280;60173;52.112;8.648;2023-03-23T13:39:19;99512.13;;;13.33;77.58
72262;BME280;60173;52.112;8.648;2023-03-23T13:41:47;99511.59;;;13.65;77.15
72262;BME280;60173;52.112;8.648;2023-03-23T13:44:19;99515.00;;;13.49;75.42
72262;BME280;60173;52.112;8.648;2023-03-23T13:47:16;99507.47;;;13.71;76.33
72262;BME280;60173;52.112;8.648;2023-03-23T13:52:23;99512.13;;;14.07;75.59
72262;BME280;60173;52.112;8.648;2023-03-23T13:54:50;99501.69;;;13.85;75.68
72262;BME280;60173;52.112;8.648;2023-03-23T13:57:33;99498.63;;;13.37;77.41
72262;BME280;60173;52.112;8.648;2023-03-23T14:03:02;99506.59;;;12.63;80.10
72262;BME280;60173;52.112;8.648;2023-03-23T14:05:32;99514.88;;;12.34;80.79
72262;BME280;60173;52.112;8.648;2023-03-23T14:08:02;99511.66;;;12.32;81.41
72262;BME280;60173;52.112;8.648;2023-03-23T14:10:38;99508.38;;;12.47;81.41
72262;BME280;60173;52.112;8.648;2023-03-23T14:13:09;99495.03;;;12.66;80.66
72262;BME280;60173;52.112;8.648;2023-03-23T14:15:45;99504.34;;;12.65;81.09